createdAt,value
2018-05-26T00:00:33.736Z,6.63
2018-05-26T00:03:01.252Z,6.20
2018-05-26T00:05:27.846Z,7.90
2018-05-26T00:07:54.389Z,6.67
2018-05-26T00:10:21.069Z,7.27
2018-05-26T00:12:48.367Z,7.37
2018-05-26T00:15:15.179Z,5.97
2018-05-26T00:17:42.221Z,7.33
2018-05-26T00:20:08.762Z,7.70
2018-05-26T00:22:35.421Z,6.53
2018-05-26T00:25:01.986Z,7.60
2018-05-26T00:27:28.795Z,9.10
2018-05-26T00:29:55.331Z,7.50
2018-05-26T00:32:21.938Z,7.97
2018-05-26T00:34:48.579Z,8.80
2018-05-26T00:37:15.317Z,7.70
2018-05-26T00:39:42.172Z,8.57
2018-05-26T00:42:09.091Z,9.23
2018-05-26T00:44:36.253Z,8.73
2018-05-26T00:47:02.786Z,8.40
2018-05-26T00:49:29.500Z,9.80
2018-05-26T00:51:55.944Z,9.17
2018-05-26T00:54:23.743Z,9.33
2018-05-26T00:56:50.511Z,9.73
2018-05-26T00:59:16.973Z,10.00
2018-05-26T01:01:43.739Z,9.63
2018-05-26T01:04:10.394Z,9.87
2018-05-26T01:06:37.447Z,10.73
2018-05-26T01:09:05.477Z,10.03
2018-05-26T01:11:31.938Z,11.03
2018-05-26T01:13:59.173Z,10.90
2018-05-26T01:16:25.822Z,9.67
2018-05-26T01:19:15.579Z,10.53
2018-05-26T01:21:42.065Z,10.67
2018-05-26T01:24:08.765Z,10.43
2018-05-26T01:26:35.274Z,10.60
2018-05-26T01:29:01.933Z,10.07
2018-05-26T01:31:29.259Z,10.57
2018-05-26T01:33:55.706Z,12.93
2018-05-26T01:36:22.211Z,10.77
2018-05-26T01:38:48.720Z,12.87
2018-05-26T01:41:16.137Z,13.47
2018-05-26T01:43:42.890Z,13.53
2018-05-26T01:46:09.441Z,14.20
2018-05-26T01:48:35.923Z,13.67
2018-05-26T01:51:02.438Z,13.40
2018-05-26T01:53:28.837Z,15.63
2018-05-26T01:55:55.315Z,14.40
2018-05-26T01:58:21.949Z,17.00
2018-05-26T02:00:48.399Z,15.57
2018-05-26T02:03:14.839Z,16.30
2018-05-26T02:05:41.302Z,15.30
2018-05-26T02:08:07.828Z,14.20
2018-05-26T02:10:35.908Z,16.57
2018-05-26T02:13:02.563Z,16.30
2018-05-26T02:15:30.010Z,17.00
2018-05-26T02:17:56.655Z,16.03
2018-05-26T02:20:23.147Z,15.63
2018-05-26T02:22:50.005Z,18.17
2018-05-26T02:25:17.127Z,19.47
2018-05-26T02:27:44.023Z,18.27
2018-05-26T02:30:10.633Z,17.57
2018-05-26T02:32:37.583Z,17.87
2018-05-26T02:35:04.209Z,17.63
2018-05-26T02:37:30.805Z,18.90
2018-05-26T02:39:57.457Z,18.87
2018-05-26T02:42:24.050Z,19.53
2018-05-26T02:44:50.501Z,17.90
2018-05-26T02:47:18.118Z,18.00
2018-05-26T02:49:44.832Z,18.07
2018-05-26T02:52:11.482Z,18.93
2018-05-26T02:54:38.039Z,18.90
2018-05-26T02:57:04.501Z,17.20
2018-05-26T02:59:31.675Z,18.87
2018-05-26T03:01:58.311Z,19.50
2018-05-26T03:04:31.150Z,19.63
2018-05-26T03:07:04.437Z,19.60
2018-05-26T03:09:37.029Z,22.77
2018-05-26T03:12:09.475Z,21.40
2018-05-26T03:14:42.039Z,19.47
2018-05-26T03:17:12.521Z,20.40
2018-05-26T03:19:39.148Z,22.40
2018-05-26T03:22:05.769Z,21.73
2018-05-26T03:24:32.480Z,22.40
2018-05-26T03:26:59.161Z,21.17
2018-05-26T03:29:25.856Z,21.30
2018-05-26T03:31:52.567Z,21.23
2018-05-26T03:34:19.113Z,20.10
2018-05-26T03:36:45.703Z,20.80
2018-05-26T03:39:12.187Z,18.70
2018-05-26T03:41:38.621Z,18.60
2018-05-26T03:44:05.189Z,19.00
2018-05-26T03:46:31.781Z,18.90
2018-05-26T03:48:58.384Z,19.03
2018-05-26T03:51:25.020Z,17.00
2018-05-26T03:53:52.135Z,17.43
2018-05-26T03:56:30.847Z,17.70
2018-05-26T03:59:09.514Z,17.83
2018-05-26T04:01:36.251Z,16.60
2018-05-26T04:04:02.653Z,16.17
2018-05-26T04:06:29.947Z,16.83
2018-05-26T04:08:58.036Z,15.27
2018-05-26T04:11:24.759Z,17.13
2018-05-26T04:13:51.483Z,17.27
2018-05-26T04:16:18.192Z,15.00
2018-05-26T04:18:44.879Z,15.17
2018-05-26T04:21:11.612Z,15.10
2018-05-26T04:23:38.920Z,13.93
2018-05-26T04:26:05.652Z,13.73
2018-05-26T04:28:32.354Z,13.77
2018-05-26T04:30:59.081Z,15.03
2018-05-26T04:33:25.784Z,13.80
2018-05-26T04:35:53.408Z,14.33
2018-05-26T04:38:20.300Z,12.20
2018-05-26T04:40:49.342Z,11.47
2018-05-26T04:43:17.421Z,13.03
2018-05-26T04:45:45.102Z,12.90
2018-05-26T04:48:12.425Z,10.50
2018-05-26T04:50:38.888Z,11.00
2018-05-26T04:53:05.353Z,9.57
2018-05-26T04:55:32.485Z,9.93
2018-05-26T04:57:58.820Z,8.73
2018-05-26T05:00:26.073Z,9.50
2018-05-26T05:02:53.665Z,9.47
2018-05-26T05:05:21.793Z,9.27
2018-05-26T05:07:48.328Z,9.87
2018-05-26T05:10:14.969Z,9.00
2018-05-26T05:12:41.931Z,9.50
2018-05-26T05:15:08.879Z,8.90
2018-05-26T05:17:36.848Z,9.67
2018-05-26T05:20:03.670Z,8.50
2018-05-26T05:22:30.762Z,9.23
2018-05-26T05:24:57.681Z,9.53
2018-05-26T05:27:24.387Z,8.60
2018-05-26T05:29:54.207Z,8.93
2018-05-26T05:32:21.690Z,8.67
2018-05-26T05:34:49.721Z,7.90
2018-05-26T05:37:17.041Z,8.93
2018-05-26T05:39:43.584Z,8.00
2018-05-26T05:42:11.026Z,8.93
2018-05-26T05:44:40.762Z,8.20
2018-05-26T05:47:08.550Z,8.77
2018-05-26T05:49:35.733Z,8.07
2018-05-26T05:52:03.402Z,7.90
2018-05-26T05:54:32.203Z,7.30
2018-05-26T05:56:59.635Z,8.33
2018-05-26T05:59:27.221Z,8.60
2018-05-26T06:01:55.029Z,10.63
2018-05-26T06:04:21.761Z,9.70
2018-05-26T06:06:49.237Z,8.77
2018-05-26T06:09:19.408Z,8.77
2018-05-26T06:11:46.025Z,8.13
2018-05-26T06:14:13.581Z,8.97
2018-05-26T06:16:40.578Z,9.43
2018-05-26T06:19:07.065Z,8.77
2018-05-26T06:21:33.556Z,9.20
2018-05-26T06:24:00.140Z,8.97
2018-05-26T06:26:27.792Z,8.80
2018-05-26T06:28:54.320Z,9.10
2018-05-26T06:31:21.635Z,9.67
2018-05-26T06:33:48.278Z,9.47
2018-05-26T06:36:15.695Z,9.23
2018-05-26T06:38:42.306Z,9.73
2018-05-26T06:41:09.464Z,10.20
2018-05-26T06:43:37.187Z,10.00
2018-05-26T06:46:03.823Z,8.90
2018-05-26T06:48:30.732Z,9.27
2018-05-26T06:50:57.869Z,9.10
2018-05-26T06:53:25.628Z,8.40
2018-05-26T06:55:52.274Z,8.50
2018-05-26T06:58:18.877Z,8.57
2018-05-26T07:00:45.699Z,8.30
2018-05-26T07:03:12.133Z,8.30
2018-05-26T07:05:39.388Z,9.00
2018-05-26T07:08:06.582Z,8.30
2018-05-26T07:10:33.711Z,8.83
2018-05-26T07:13:00.821Z,8.30
2018-05-26T07:15:28.644Z,8.57
2018-05-26T07:17:55.793Z,8.10
2018-05-26T07:20:23.667Z,6.83
2018-05-26T07:22:50.407Z,7.40
2018-05-26T07:25:17.404Z,7.60
2018-05-26T07:27:43.932Z,8.00
2018-05-26T07:30:10.402Z,7.43
2018-05-26T07:32:38.956Z,7.33
2018-05-26T07:35:05.589Z,7.80
2018-05-26T07:37:32.055Z,6.63
2018-05-26T07:39:59.044Z,7.50
2018-05-26T07:42:26.362Z,7.70
2018-05-26T07:44:52.882Z,7.63
2018-05-26T07:47:19.493Z,7.40
2018-05-26T07:49:46.044Z,6.80
2018-05-26T07:52:14.765Z,8.70
2018-05-26T07:54:43.077Z,6.97
2018-05-26T07:57:09.647Z,7.13
2018-05-26T07:59:36.149Z,6.50
2018-05-26T08:02:04.170Z,7.50
2018-05-26T08:04:31.397Z,7.57
2018-05-26T08:06:58.223Z,6.93
2018-05-26T08:09:26.163Z,6.90
2018-05-26T08:11:53.246Z,7.60
2018-05-26T08:14:20.992Z,5.50
2018-05-26T08:19:21.992Z,7.00
2018-05-26T08:21:57.755Z,7.30
2018-05-26T08:24:24.273Z,6.30
2018-05-26T08:26:50.982Z,6.70
2018-05-26T08:29:17.469Z,5.87
2018-05-26T08:31:44.723Z,6.23
2018-05-26T08:34:13.259Z,6.77
2018-05-26T08:36:41.035Z,6.03
2018-05-26T08:39:08.037Z,6.30
2018-05-26T08:41:35.673Z,6.60
2018-05-26T08:44:02.400Z,6.27
2018-05-26T08:46:29.832Z,5.93
2018-05-26T08:48:59.727Z,5.57
2018-05-26T08:51:42.427Z,6.20
2018-05-26T08:54:09.868Z,6.33
2018-05-26T08:56:38.616Z,6.10
2018-05-26T08:59:06.520Z,5.50
2018-05-26T09:01:34.638Z,5.97
2018-05-26T09:04:05.539Z,6.57
2018-05-26T09:06:32.057Z,5.67
2018-05-26T09:09:01.197Z,5.97
2018-05-26T09:11:29.490Z,5.60
2018-05-26T09:13:58.580Z,6.00
2018-05-26T09:16:25.592Z,5.80
2018-05-26T09:18:54.362Z,5.77
2018-05-26T09:21:21.657Z,5.43
2018-05-26T09:23:48.229Z,6.23
2018-05-26T09:26:15.525Z,6.33
2018-05-26T09:28:43.462Z,4.90
2018-05-26T09:31:10.031Z,4.87
2018-05-26T09:33:36.866Z,4.53
2018-05-26T09:36:03.418Z,4.50
2018-05-26T09:38:30.420Z,5.60
2018-05-26T09:40:57.257Z,5.10
2018-05-26T09:43:24.741Z,5.23
2018-05-26T09:45:53.753Z,5.60
2018-05-26T09:48:21.442Z,4.50
2018-05-26T09:50:48.652Z,5.00
2018-05-26T09:53:15.312Z,4.90
2018-05-26T09:55:42.369Z,4.63
2018-05-26T09:58:08.996Z,4.80
2018-05-26T10:00:35.449Z,4.50
2018-05-26T10:03:03.099Z,4.47
2018-05-26T10:05:29.645Z,4.07
2018-05-26T10:07:57.335Z,4.23
2018-05-26T10:10:23.929Z,4.80
2018-05-26T10:12:50.512Z,4.67
2018-05-26T10:15:16.981Z,4.30
2018-05-26T10:17:44.246Z,5.20
2018-05-26T10:20:10.782Z,4.93
2018-05-26T10:22:37.853Z,4.83
2018-05-26T10:25:04.743Z,4.67
2018-05-26T10:27:32.321Z,4.67
2018-05-26T10:29:59.577Z,5.43
2018-05-26T10:32:33.091Z,5.57
2018-05-26T10:35:00.984Z,5.40
2018-05-26T10:37:27.431Z,4.17
2018-05-26T10:39:53.949Z,4.90
2018-05-26T10:42:20.434Z,5.17
2018-05-26T10:44:47.241Z,4.93
2018-05-26T10:47:15.410Z,5.03
2018-05-26T10:49:41.790Z,5.20
2018-05-26T10:52:08.733Z,5.17
2018-05-26T10:54:38.795Z,4.77
2018-05-26T10:57:11.225Z,4.63
2018-05-26T10:59:40.067Z,5.00
2018-05-26T11:02:07.190Z,4.00
2018-05-26T11:04:33.998Z,4.23
2018-05-26T11:07:00.927Z,5.00
2018-05-26T11:09:27.483Z,5.00
2018-05-26T11:11:56.464Z,4.40
2018-05-26T11:14:23.926Z,5.10
2018-05-26T11:16:52.002Z,4.17
2018-05-26T11:19:19.261Z,4.40
2018-05-26T11:21:47.440Z,4.70
2018-05-26T11:24:15.163Z,4.20
2018-05-26T11:26:41.770Z,3.20
2018-05-26T11:29:08.722Z,4.20
2018-05-26T11:31:35.225Z,4.07
2018-05-26T11:34:01.738Z,4.27
2018-05-26T11:36:28.385Z,4.00
2018-05-26T11:38:56.538Z,4.50
2018-05-26T11:41:25.407Z,3.90
2018-05-26T11:43:52.247Z,3.57
2018-05-26T11:46:19.167Z,4.43
2018-05-26T11:48:46.112Z,4.63
2018-05-26T11:51:12.702Z,3.90
2018-05-26T11:53:39.541Z,3.83
2018-05-26T11:56:06.067Z,4.10
2018-05-26T11:58:33.532Z,3.93
2018-05-26T12:01:00.108Z,3.50
2018-05-26T12:03:27.684Z,3.77
2018-05-26T12:05:55.667Z,3.70
2018-05-26T12:08:22.166Z,4.40
2018-05-26T12:10:49.152Z,3.93
2018-05-26T12:13:15.834Z,3.93
2018-05-26T12:15:42.399Z,3.77
2018-05-26T12:18:08.973Z,3.90
2018-05-26T12:20:36.213Z,4.10
2018-05-26T12:23:03.785Z,3.53
2018-05-26T12:25:30.487Z,3.77
2018-05-26T12:27:57.183Z,4.00
2018-05-26T12:30:24.518Z,4.50
2018-05-26T12:32:53.565Z,3.80
2018-05-26T12:35:20.115Z,3.67
2018-05-26T12:37:47.090Z,3.73
2018-05-26T12:40:14.828Z,3.40
2018-05-26T12:42:41.720Z,3.23
2018-05-26T12:45:10.800Z,3.77
2018-05-26T12:47:38.565Z,3.80
2018-05-26T12:50:06.111Z,3.80
2018-05-26T12:52:33.068Z,4.40
2018-05-26T12:54:59.500Z,3.33
2018-05-26T12:57:26.161Z,4.20
2018-05-26T12:59:52.715Z,3.70
2018-05-26T13:02:19.357Z,3.90
2018-05-26T13:04:46.393Z,3.97
2018-05-26T13:07:16.206Z,3.47
2018-05-26T13:09:58.909Z,3.83
2018-05-26T13:12:26.963Z,3.37
2018-05-26T13:14:57.144Z,3.50
2018-05-26T13:17:26.159Z,3.10
2018-05-26T13:19:53.998Z,3.60
2018-05-26T13:22:25.872Z,3.60
2018-05-26T13:24:56.635Z,3.50
2018-05-26T13:27:28.958Z,3.80
2018-05-26T13:30:01.904Z,3.90
2018-05-26T13:32:32.635Z,3.37
2018-05-26T13:35:04.674Z,4.70
2018-05-26T13:37:42.877Z,3.97
2018-05-26T13:40:12.172Z,3.40
2018-05-26T13:42:40.522Z,3.10
2018-05-26T13:45:09.408Z,3.53
2018-05-26T13:47:37.001Z,3.50
2018-05-26T13:50:05.571Z,3.80
2018-05-26T13:52:34.731Z,3.73
2018-05-26T13:55:02.065Z,3.60
2018-05-26T13:57:28.762Z,3.00
2018-05-26T13:59:57.273Z,3.97
2018-05-26T14:02:24.254Z,3.70
2018-05-26T14:04:52.025Z,3.10
2018-05-26T14:07:18.669Z,4.63
2018-05-26T14:09:45.711Z,4.07
2018-05-26T14:12:12.375Z,3.37
2018-05-26T14:14:39.295Z,3.23
2018-05-26T14:17:07.149Z,3.07
2018-05-26T14:19:35.927Z,3.37
2018-05-26T14:22:02.972Z,3.07
2018-05-26T14:24:30.679Z,3.80
2018-05-26T14:26:58.382Z,3.00
2018-05-26T14:29:24.923Z,3.30
2018-05-26T14:31:52.024Z,3.53
2018-05-26T14:34:18.953Z,3.20
2018-05-26T14:36:45.773Z,3.40
2018-05-26T14:39:12.789Z,2.97
2018-05-26T14:41:39.351Z,3.87
2018-05-26T14:44:05.957Z,3.30
2018-05-26T14:46:32.995Z,4.10
2018-05-26T14:48:59.558Z,4.00
2018-05-26T14:51:27.929Z,3.87
2018-05-26T14:53:55.237Z,4.07
2018-05-26T14:56:22.833Z,2.90
2018-05-26T14:58:50.274Z,3.60
2018-05-26T15:01:17.849Z,3.00
2018-05-26T15:03:46.169Z,3.03
2018-05-26T15:06:13.802Z,3.00
2018-05-26T15:08:40.937Z,2.70
2018-05-26T15:11:09.693Z,3.07
2018-05-26T15:13:37.850Z,5.23
2018-05-26T15:16:05.710Z,2.80
2018-05-26T15:18:33.656Z,3.67
2018-05-26T15:21:00.759Z,3.00
2018-05-26T15:23:30.210Z,2.90
2018-05-26T15:25:58.887Z,3.60
2018-05-26T15:28:27.275Z,3.23
2018-05-26T15:31:05.726Z,3.00
2018-05-26T15:33:35.057Z,3.27
2018-05-26T15:36:03.183Z,3.20
2018-05-26T15:38:30.250Z,3.60
2018-05-26T15:40:56.835Z,2.73
2018-05-26T15:43:24.584Z,3.33
2018-05-26T15:45:52.254Z,2.97
2018-05-26T15:48:19.151Z,3.50
2018-05-26T15:50:47.910Z,3.60
2018-05-26T15:53:15.721Z,3.93
2018-05-26T15:55:46.488Z,3.30
2018-05-26T15:58:14.323Z,3.27
2018-05-26T16:00:42.504Z,4.20
2018-05-26T16:03:09.440Z,3.97
2018-05-26T16:08:09.165Z,3.80
2018-05-26T16:10:38.306Z,3.70
2018-05-26T16:13:04.852Z,4.23
2018-05-26T16:15:32.065Z,3.37
2018-05-26T16:17:59.740Z,3.47
2018-05-26T16:20:27.273Z,4.63
2018-05-26T16:22:54.102Z,4.50
2018-05-26T16:25:21.861Z,4.37
2018-05-26T16:27:48.618Z,4.30
2018-05-26T16:30:16.654Z,4.77
2018-05-26T16:32:43.642Z,4.33
2018-05-26T16:35:10.390Z,3.80
2018-05-26T16:37:37.425Z,4.07
2018-05-26T16:40:05.492Z,3.87
2018-05-26T16:42:32.508Z,3.80
2018-05-26T16:44:59.748Z,3.90
2018-05-26T16:47:26.903Z,3.60
2018-05-26T16:49:53.548Z,3.17
2018-05-26T16:52:21.659Z,3.37
2018-05-26T16:54:49.580Z,2.90
2018-05-26T16:57:17.776Z,3.40
2018-05-26T16:59:44.865Z,3.87
2018-05-26T17:04:46.545Z,3.40
2018-05-26T17:07:13.400Z,4.03
2018-05-26T17:09:41.883Z,3.00
2018-05-26T17:12:09.711Z,3.13
2018-05-26T17:14:36.365Z,3.33
2018-05-26T17:17:03.086Z,3.47
2018-05-26T17:19:29.935Z,3.27
2018-05-26T17:21:56.897Z,3.20
2018-05-26T17:24:24.493Z,2.67
2018-05-26T17:26:53.678Z,3.67
2018-05-26T17:29:21.121Z,3.17
2018-05-26T17:31:48.560Z,3.03
2018-05-26T17:34:17.511Z,3.37
2018-05-26T17:36:46.172Z,3.90
2018-05-26T17:39:13.590Z,3.77
2018-05-26T17:41:40.983Z,3.43
2018-05-26T17:44:08.175Z,3.03
2018-05-26T17:46:34.955Z,3.20
2018-05-26T17:49:02.184Z,3.70
2018-05-26T17:51:32.997Z,3.43
2018-05-26T17:54:00.917Z,2.83
2018-05-26T17:56:30.056Z,2.80
2018-05-26T17:58:57.729Z,3.60
2018-05-26T18:01:25.162Z,3.00
2018-05-26T18:03:54.167Z,2.80
2018-05-26T18:06:22.040Z,3.73
2018-05-26T18:08:52.635Z,3.40
2018-05-26T18:11:21.602Z,3.80
2018-05-26T18:13:48.382Z,3.83
2018-05-26T18:16:15.309Z,3.57
2018-05-26T18:18:42.094Z,3.20
2018-05-26T18:21:09.530Z,3.00
2018-05-26T18:23:38.174Z,3.20
2018-05-26T18:26:06.036Z,5.07
2018-05-26T18:28:34.198Z,6.13
2018-05-26T18:31:00.731Z,5.50
2018-05-26T18:33:28.977Z,5.37
2018-05-26T18:35:56.135Z,4.73
2018-05-26T18:38:23.746Z,4.27
2018-05-26T18:40:50.274Z,4.23
2018-05-26T18:43:18.532Z,4.10
2018-05-26T18:45:46.727Z,4.77
2018-05-26T18:48:13.259Z,4.93
2018-05-26T18:50:40.857Z,4.87
2018-05-26T18:53:09.118Z,5.27
2018-05-26T18:55:36.456Z,5.97
2018-05-26T18:58:03.325Z,5.00
2018-05-26T19:00:29.988Z,5.83
2018-05-26T19:02:56.812Z,5.37
2018-05-26T19:05:24.447Z,8.33
2018-05-26T19:07:51.814Z,6.90
2018-05-26T19:10:19.127Z,7.30
2018-05-26T19:12:45.765Z,8.07
2018-05-26T19:15:14.757Z,7.60
2018-05-26T19:17:42.131Z,9.00
2018-05-26T19:20:11.190Z,8.23
2018-05-26T19:22:40.758Z,8.17
2018-05-26T19:25:08.934Z,6.97
2018-05-26T19:27:35.951Z,8.23
2018-05-26T19:30:02.856Z,9.50
2018-05-26T19:32:30.556Z,8.70
2018-05-26T19:34:58.162Z,9.53
2018-05-26T19:37:27.242Z,7.83
2018-05-26T19:39:55.588Z,10.63
2018-05-26T19:42:23.159Z,9.47
2018-05-26T19:44:50.139Z,11.37
2018-05-26T19:47:18.183Z,10.23
2018-05-26T19:49:44.849Z,9.60
2018-05-26T19:52:11.758Z,11.27
2018-05-26T19:54:42.516Z,13.30
2018-05-26T19:57:10.097Z,13.37
2018-05-26T19:59:37.406Z,15.60
2018-05-26T20:02:04.295Z,14.43
2018-05-26T20:04:32.541Z,14.13
2018-05-26T20:06:59.893Z,14.23
2018-05-26T20:09:28.897Z,15.27
2018-05-26T20:12:00.438Z,13.53
2018-05-26T20:14:29.637Z,14.90
2018-05-26T20:16:56.354Z,14.77
2018-05-26T20:19:23.053Z,14.43
2018-05-26T20:21:50.017Z,14.90
2018-05-26T20:24:18.423Z,15.73
2018-05-26T20:26:46.015Z,15.77
2018-05-26T20:29:15.801Z,17.30
2018-05-26T20:31:42.981Z,16.07
2018-05-26T20:34:09.802Z,17.07
2018-05-26T20:36:36.740Z,16.77
2018-05-26T20:39:04.741Z,15.90
2018-05-26T20:41:31.648Z,17.37
2018-05-26T20:43:58.361Z,16.37
2018-05-26T20:46:25.830Z,20.03
2018-05-26T20:48:53.091Z,20.57
2018-05-26T20:51:20.610Z,21.13
2018-05-26T20:53:47.610Z,21.50
2018-05-26T20:56:14.786Z,20.47
2018-05-26T20:58:41.519Z,21.60
2018-05-26T21:01:08.700Z,20.73
2018-05-26T21:03:35.314Z,24.20
2018-05-26T21:06:02.824Z,23.50
2018-05-26T21:08:29.560Z,23.20
2018-05-26T21:10:56.487Z,25.17
2018-05-26T21:13:23.054Z,26.07
2018-05-26T21:15:50.000Z,26.30
2018-05-26T21:18:17.390Z,28.10
2018-05-26T21:20:44.630Z,31.23
2018-05-26T21:23:11.207Z,30.50
2018-05-26T21:25:39.138Z,30.13
2018-05-26T21:28:05.767Z,28.93
2018-05-26T21:30:33.726Z,32.67
2018-05-26T21:33:01.591Z,32.70
2018-05-26T21:35:30.619Z,31.37
2018-05-26T21:37:57.198Z,28.80
2018-05-26T21:40:24.193Z,29.83
2018-05-26T21:42:52.632Z,30.53
2018-05-26T21:45:19.464Z,29.23
2018-05-26T21:47:47.945Z,28.30
2018-05-26T21:50:18.159Z,27.63
2018-05-26T21:52:45.592Z,30.70
2018-05-26T21:55:13.264Z,31.50
2018-05-26T21:57:42.831Z,33.57
2018-05-26T22:00:09.804Z,34.97
2018-05-26T22:02:38.308Z,36.97
2018-05-26T22:05:06.362Z,35.27
2018-05-26T22:07:33.364Z,37.23
2018-05-26T22:10:00.264Z,34.30
2018-05-26T22:12:27.049Z,36.80
2018-05-26T22:14:54.361Z,34.67
2018-05-26T22:17:20.893Z,34.90
2018-05-26T22:19:47.370Z,37.73
2018-05-26T22:22:14.059Z,38.90
2018-05-26T22:24:41.510Z,40.80
2018-05-26T22:27:09.711Z,36.90
2018-05-26T22:29:36.368Z,41.13
2018-05-26T22:32:02.775Z,41.77
2018-05-26T22:34:29.304Z,41.50
2018-05-26T22:36:55.981Z,44.73
2018-05-26T22:39:22.750Z,50.67
2018-05-26T22:41:49.239Z,54.37
2018-05-26T22:44:15.937Z,52.90
2018-05-26T22:46:42.495Z,54.77
2018-05-26T22:49:09.646Z,46.90
2018-05-26T22:51:36.306Z,43.80
2018-05-26T22:54:03.846Z,43.90
2018-05-26T22:56:30.715Z,47.07
2018-05-26T22:58:58.263Z,45.83
2018-05-26T23:01:25.600Z,44.30
2018-05-26T23:03:53.906Z,46.40
2018-05-26T23:06:25.018Z,48.60
2018-05-26T23:08:52.911Z,49.93
2018-05-26T23:11:23.511Z,47.63
2018-05-26T23:13:51.181Z,48.90
2018-05-26T23:16:17.773Z,44.63
2018-05-26T23:18:44.539Z,47.40
2018-05-26T23:21:12.582Z,48.93
2018-05-26T23:23:39.734Z,47.80
2018-05-26T23:26:06.198Z,47.13
2018-05-26T23:28:32.634Z,48.47
2018-05-26T23:30:59.151Z,42.93
2018-05-26T23:33:25.751Z,43.10
2018-05-26T23:35:52.237Z,41.80
2018-05-26T23:38:19.161Z,41.43
2018-05-26T23:40:45.855Z,41.23
2018-05-26T23:43:12.425Z,42.03
2018-05-26T23:45:39.365Z,39.17
2018-05-26T23:48:06.784Z,38.47
2018-05-26T23:50:33.241Z,38.43
2018-05-26T23:52:59.851Z,39.90
2018-05-26T23:55:26.463Z,40.67
2018-05-26T23:57:54.552Z,38.43
